CND77LK LGZA-EHAM
Flight info
| Callsign | CND77LK |
|---|---|
| Flight time | N/A |
| Altitude | 38000 |
| Route | OSDES UN1 LATAN DCT XOLTA DCT IXONA DCT ROTAR DCT MOBDO DCT SOTOV DCT KPT DCT VEKIR DCT HAREM DCT LOHRE DCT EBIPA DCT MAPOX L604 BIGGE DCT NORKU |
| Aircraft | B38M/M-SDE1FGHILORVWXY/HB1 |
Departure
| Time | 2026-04-25 09:06 |
|---|---|
| Airport | Zakynthos International Airport Dionysios Solomos (LGZA) |
Arrival
| Time | N/A |
|---|---|
| Airport | Amsterdam Airport Schiphol (EHAM) |
| Time | Latitude | Longitude | Altitude | Speed | Heading |
|---|---|---|---|---|---|
| 2026-04-25 08:24 | 37.75408 | 20.88520 | 23 ft | 0 kts | 73° |
| 2026-04-25 08:56 | 37.75405 | 20.88508 | 23 ft | 4 kts | 72° |
| 2026-04-25 08:57 | 37.75397 | 20.88476 | 24 ft | 4 kts | 73° |
| 2026-04-25 08:57 | 37.75393 | 20.88444 | 23 ft | 4 kts | 104° |
| 2026-04-25 08:57 | 37.75400 | 20.88431 | 23 ft | 0 kts | 163° |
| 2026-04-25 09:01 | 37.75398 | 20.88432 | 25 ft | 1 kts | 163° |
| 2026-04-25 09:01 | 37.75356 | 20.88447 | 24 ft | 12 kts | 163° |
| 2026-04-25 09:02 | 37.75264 | 20.88482 | 23 ft | 13 kts | 164° |
| 2026-04-25 09:02 | 37.75178 | 20.88513 | 23 ft | 14 kts | 164° |
| 2026-04-25 09:02 | 37.75115 | 20.88529 | 24 ft | 9 kts | 189° |
| 2026-04-25 09:02 | 37.75054 | 20.88479 | 24 ft | 12 kts | 213° |
| 2026-04-25 09:03 | 37.74963 | 20.88475 | 22 ft | 15 kts | 164° |
| 2026-04-25 09:03 | 37.74860 | 20.88514 | 22 ft | 16 kts | 163° |
| 2026-04-25 09:03 | 37.74751 | 20.88553 | 24 ft | 17 kts | 164° |
| 2026-04-25 09:03 | 37.74633 | 20.88598 | 25 ft | 19 kts | 162° |
| 2026-04-25 09:04 | 37.74504 | 20.88646 | 25 ft | 20 kts | 163° |
| 2026-04-25 09:04 | 37.74363 | 20.88699 | 22 ft | 20 kts | 163° |
| 2026-04-25 09:04 | 37.74255 | 20.88740 | 25 ft | 11 kts | 164° |
| 2026-04-25 09:04 | 37.74187 | 20.88728 | 26 ft | 9 kts | 184° |
| 2026-04-25 09:05 | 37.74163 | 20.88762 | 25 ft | 4 kts | 61° |
| 2026-04-25 09:05 | 37.74184 | 20.88764 | 23 ft | 4 kts | 346° |
| 2026-04-25 09:05 | 37.74190 | 20.88762 | 23 ft | 0 kts | 346° |
| 2026-04-25 09:05 | 37.74244 | 20.88744 | 24 ft | 36 kts | 345° |
| 2026-04-25 09:06 | 37.74756 | 20.88551 | 25 ft | 115 kts | 343° |
| 2026-04-25 09:06 | 37.75730 | 20.88196 | 109 ft | 169 kts | 344° |
| 2026-04-25 09:06 | 37.76889 | 20.87768 | 859 ft | 178 kts | 343° |
| 2026-04-25 09:06 | 37.78112 | 20.87301 | 1659 ft | 194 kts | 343° |
| 2026-04-25 09:07 | 37.79483 | 20.86770 | 2406 ft | 212 kts | 344° |
| 2026-04-25 09:07 | 37.80877 | 20.86232 | 3594 ft | 209 kts | 345° |
| 2026-04-25 09:07 | 37.82286 | 20.85688 | 4594 ft | 216 kts | 345° |
| 2026-04-25 09:07 | 37.83757 | 20.85122 | 5502 ft | 224 kts | 345° |
| 2026-04-25 09:08 | 37.85259 | 20.84543 | 6495 ft | 227 kts | 346° |
| 2026-04-25 09:08 | 37.86834 | 20.84103 | 7221 ft | 239 kts | 359° |
| 2026-04-25 09:08 | 37.88531 | 20.84330 | 7799 ft | 255 kts | 21° |
| 2026-04-25 09:08 | 37.90155 | 20.85379 | 8426 ft | 271 kts | 30° |
| 2026-04-25 09:09 | 37.91832 | 20.86502 | 9445 ft | 272 kts | 29° |
| 2026-04-25 09:09 | 37.93512 | 20.87617 | 10397 ft | 277 kts | 29° |
| 2026-04-25 09:09 | 37.95283 | 20.88771 | 10921 ft | 296 kts | 25° |
| 2026-04-25 09:09 | 37.97362 | 20.89255 | 11491 ft | 315 kts | 358° |
| 2026-04-25 09:10 | 37.99502 | 20.88448 | 12197 ft | 331 kts | 334° |
| 2026-04-25 09:10 | 38.01298 | 20.86598 | 13123 ft | 338 kts | 314° |
| 2026-04-25 09:10 | 38.02859 | 20.84324 | 13905 ft | 344 kts | 315° |
| 2026-04-25 09:10 | 38.04462 | 20.82048 | 14647 ft | 348 kts | 315° |
| 2026-04-25 09:11 | 38.07731 | 20.77414 | 16070 ft | 357 kts | 315° |
| 2026-04-25 09:11 | 38.09395 | 20.75053 | 16790 ft | 361 kts | 315° |
| 2026-04-25 09:11 | 38.11079 | 20.72666 | 17491 ft | 365 kts | 315° |
| 2026-04-25 09:12 | 38.12780 | 20.70250 | 18200 ft | 369 kts | 315° |
| 2026-04-25 09:12 | 38.14501 | 20.67805 | 18821 ft | 373 kts | 315° |
| 2026-04-25 09:12 | 38.16237 | 20.65335 | 19424 ft | 377 kts | 315° |
| 2026-04-25 09:12 | 38.17991 | 20.62835 | 19987 ft | 381 kts | 315° |
| 2026-04-25 09:13 | 38.19768 | 20.60304 | 20490 ft | 386 kts | 315° |
| 2026-04-25 09:13 | 38.21558 | 20.57751 | 21055 ft | 389 kts | 315° |
| 2026-04-25 09:13 | 38.23369 | 20.55165 | 21608 ft | 393 kts | 315° |
| 2026-04-25 09:13 | 38.25173 | 20.52591 | 22131 ft | 397 kts | 315° |
| 2026-04-25 09:14 | 38.27015 | 20.49957 | 22683 ft | 400 kts | 315° |
| 2026-04-25 09:14 | 38.28874 | 20.47297 | 23195 ft | 404 kts | 315° |
| 2026-04-25 09:14 | 38.30747 | 20.44612 | 23708 ft | 407 kts | 315° |
| 2026-04-25 09:14 | 38.32637 | 20.41906 | 24158 ft | 410 kts | 315° |
| 2026-04-25 09:15 | 38.34535 | 20.39183 | 24611 ft | 413 kts | 315° |
| 2026-04-25 09:15 | 38.36449 | 20.36434 | 25039 ft | 415 kts | 315° |
| 2026-04-25 09:15 | 38.38371 | 20.33670 | 25474 ft | 418 kts | 315° |
| 2026-04-25 09:15 | 38.40304 | 20.30890 | 25903 ft | 420 kts | 315° |
| 2026-04-25 09:16 | 38.42248 | 20.28090 | 26329 ft | 423 kts | 316° |
| 2026-04-25 09:16 | 38.44200 | 20.25277 | 26741 ft | 425 kts | 316° |
| 2026-04-25 09:16 | 38.46169 | 20.22437 | 27144 ft | 428 kts | 316° |
| 2026-04-25 09:16 | 38.48144 | 20.19583 | 27525 ft | 430 kts | 315° |
| 2026-04-25 09:17 | 38.52123 | 20.13830 | 28316 ft | 434 kts | 316° |
| 2026-04-25 09:17 | 38.54128 | 20.10927 | 28683 ft | 437 kts | 315° |
| 2026-04-25 09:17 | 38.56143 | 20.08006 | 29073 ft | 439 kts | 316° |
| 2026-04-25 09:18 | 38.58166 | 20.05071 | 29438 ft | 441 kts | 316° |
| 2026-04-25 09:18 | 38.60200 | 20.02118 | 29792 ft | 444 kts | 316° |
| 2026-04-25 09:18 | 38.62243 | 19.99148 | 30149 ft | 446 kts | 316° |
| 2026-04-25 09:18 | 38.64298 | 19.96158 | 30453 ft | 448 kts | 316° |
| 2026-04-25 09:19 | 38.66357 | 19.93160 | 30765 ft | 450 kts | 316° |
| 2026-04-25 09:19 | 38.68423 | 19.90147 | 31080 ft | 451 kts | 316° |
| 2026-04-25 09:19 | 38.70470 | 19.87160 | 31376 ft | 453 kts | 316° |
| 2026-04-25 09:19 | 38.72577 | 19.84082 | 31673 ft | 454 kts | 316° |
| 2026-04-25 09:20 | 38.74638 | 19.81068 | 31978 ft | 456 kts | 316° |
| 2026-04-25 09:20 | 38.76728 | 19.78009 | 32244 ft | 457 kts | 315° |
| 2026-04-25 09:20 | 38.78824 | 19.74938 | 32559 ft | 459 kts | 315° |
| 2026-04-25 09:20 | 38.80928 | 19.71852 | 32858 ft | 460 kts | 315° |
| 2026-04-25 09:21 | 38.83036 | 19.68757 | 33208 ft | 460 kts | 315° |
| 2026-04-25 09:21 | 38.85137 | 19.65667 | 33630 ft | 459 kts | 315° |
| 2026-04-25 09:21 | 38.87231 | 19.62584 | 34028 ft | 457 kts | 315° |
| 2026-04-25 09:21 | 38.89320 | 19.59506 | 34370 ft | 456 kts | 315° |
| 2026-04-25 09:22 | 38.91402 | 19.56434 | 34673 ft | 456 kts | 315° |
| 2026-04-25 09:22 | 38.93489 | 19.53353 | 34956 ft | 456 kts | 315° |
| 2026-04-25 09:22 | 38.95571 | 19.50277 | 35241 ft | 456 kts | 315° |
| 2026-04-25 09:22 | 38.96946 | 19.48243 | 35420 ft | 456 kts | 315° |
| 2026-04-25 09:23 | 38.99029 | 19.45162 | 35671 ft | 456 kts | 315° |
| 2026-04-25 09:23 | 39.01108 | 19.42083 | 35932 ft | 456 kts | 314° |
| 2026-04-25 09:23 | 39.03191 | 19.38995 | 36188 ft | 456 kts | 314° |
| 2026-04-25 09:23 | 39.05266 | 19.35915 | 36435 ft | 456 kts | 314° |
| 2026-04-25 09:24 | 39.07348 | 19.32826 | 36674 ft | 456 kts | 314° |
| 2026-04-25 09:24 | 39.09426 | 19.29737 | 36907 ft | 456 kts | 314° |
| 2026-04-25 09:24 | 39.11506 | 19.26643 | 37139 ft | 456 kts | 314° |
| 2026-04-25 09:24 | 39.13579 | 19.23555 | 37372 ft | 456 kts | 314° |
| 2026-04-25 09:25 | 39.15655 | 19.20461 | 37592 ft | 456 kts | 314° |
| 2026-04-25 09:25 | 39.17731 | 19.17366 | 37792 ft | 456 kts | 314° |
| 2026-04-25 09:25 | 39.19799 | 19.14277 | 37985 ft | 456 kts | 313° |
| 2026-04-25 09:26 | 39.23951 | 19.08068 | 38073 ft | 456 kts | 313° |
| 2026-04-25 09:26 | 39.28080 | 19.01883 | 38082 ft | 455 kts | 314° |
| 2026-04-25 09:26 | 39.30385 | 18.99130 | 38048 ft | 448 kts | 329° |
| 2026-04-25 09:27 | 39.32949 | 18.96868 | 38093 ft | 449 kts | 327° |
| 2026-04-25 09:27 | 39.38053 | 18.92205 | 38089 ft | 449 kts | 328° |
| 2026-04-25 09:28 | 39.43192 | 18.87580 | 38074 ft | 450 kts | 328° |
| 2026-04-25 09:28 | 39.48332 | 18.82956 | 38086 ft | 450 kts | 328° |
| 2026-04-25 09:29 | 39.53430 | 18.78363 | 38085 ft | 450 kts | 328° |
| 2026-04-25 09:29 | 39.58569 | 18.73724 | 38084 ft | 450 kts | 328° |
| 2026-04-25 09:30 | 39.63699 | 18.69086 | 38082 ft | 449 kts | 328° |
| 2026-04-25 09:30 | 39.68833 | 18.64434 | 38081 ft | 450 kts | 328° |
| 2026-04-25 09:31 | 39.73964 | 18.59777 | 38082 ft | 450 kts | 328° |
| 2026-04-25 09:31 | 39.79087 | 18.55118 | 38086 ft | 450 kts | 328° |
| 2026-04-25 09:32 | 39.84212 | 18.50450 | 38087 ft | 450 kts | 328° |
| 2026-04-25 09:32 | 39.89336 | 18.45773 | 38084 ft | 449 kts | 328° |
| 2026-04-25 09:33 | 39.94421 | 18.41122 | 38078 ft | 449 kts | 328° |
| 2026-04-25 09:33 | 39.99545 | 18.36429 | 38087 ft | 450 kts | 328° |
| 2026-04-25 09:34 | 40.04667 | 18.31728 | 38079 ft | 450 kts | 328° |
| 2026-04-25 09:34 | 40.09780 | 18.27027 | 38074 ft | 450 kts | 328° |
| 2026-04-25 09:35 | 40.14892 | 18.22317 | 38072 ft | 449 kts | 328° |
| 2026-04-25 09:35 | 40.19990 | 18.17611 | 38075 ft | 449 kts | 328° |
| 2026-04-25 09:36 | 40.25088 | 18.12897 | 38072 ft | 448 kts | 328° |
| 2026-04-25 09:36 | 40.30185 | 18.08175 | 38076 ft | 449 kts | 328° |
| 2026-04-25 09:37 | 40.35243 | 18.03480 | 38074 ft | 449 kts | 328° |
| 2026-04-25 09:37 | 40.40327 | 17.98752 | 38078 ft | 448 kts | 328° |
| 2026-04-25 09:38 | 40.45409 | 17.94018 | 38079 ft | 448 kts | 328° |
| 2026-04-25 09:38 | 40.50485 | 17.89278 | 38078 ft | 448 kts | 328° |
| 2026-04-25 09:39 | 40.55570 | 17.84523 | 38081 ft | 448 kts | 328° |
| 2026-04-25 09:39 | 40.60641 | 17.79771 | 38082 ft | 448 kts | 328° |
| 2026-04-25 09:40 | 40.68236 | 17.72636 | 38073 ft | 447 kts | 328° |
| 2026-04-25 09:40 | 40.73300 | 17.67870 | 38088 ft | 448 kts | 328° |
| 2026-04-25 09:41 | 40.78367 | 17.63090 | 38089 ft | 447 kts | 328° |
| 2026-04-25 09:41 | 40.83429 | 17.58306 | 38089 ft | 447 kts | 328° |
| 2026-04-25 09:42 | 40.88379 | 17.53619 | 38092 ft | 447 kts | 328° |
| 2026-04-25 09:42 | 40.93424 | 17.48833 | 38094 ft | 447 kts | 328° |
| 2026-04-25 09:43 | 40.98475 | 17.44032 | 38094 ft | 447 kts | 328° |
| 2026-04-25 09:43 | 41.03520 | 17.39227 | 38079 ft | 447 kts | 328° |
| 2026-04-25 09:44 | 41.08567 | 17.34411 | 38092 ft | 447 kts | 328° |
| 2026-04-25 09:44 | 41.13614 | 17.29586 | 38088 ft | 446 kts | 328° |
| 2026-04-25 09:45 | 41.18648 | 17.24763 | 38096 ft | 446 kts | 328° |
| 2026-04-25 09:45 | 41.23678 | 17.19936 | 38089 ft | 446 kts | 327° |
| 2026-04-25 09:46 | 41.28703 | 17.15103 | 38096 ft | 446 kts | 328° |
| 2026-04-25 09:46 | 41.33695 | 17.10294 | 38086 ft | 446 kts | 327° |
| 2026-04-25 09:47 | 41.38704 | 17.05458 | 38093 ft | 444 kts | 327° |
| 2026-04-25 09:47 | 41.43709 | 17.00617 | 38098 ft | 445 kts | 327° |
| 2026-04-25 09:48 | 41.48723 | 16.95759 | 38098 ft | 445 kts | 327° |
| 2026-04-25 09:48 | 41.53738 | 16.90889 | 38101 ft | 445 kts | 327° |
| 2026-04-25 09:49 | 41.58744 | 16.86018 | 38093 ft | 445 kts | 327° |
| 2026-04-25 09:49 | 41.63752 | 16.81136 | 38092 ft | 445 kts | 327° |
| 2026-04-25 09:50 | 41.68757 | 16.76248 | 38094 ft | 445 kts | 327° |
| 2026-04-25 09:50 | 41.73757 | 16.71354 | 38094 ft | 445 kts | 327° |
| 2026-04-25 09:51 | 41.78731 | 16.66476 | 38090 ft | 446 kts | 327° |
| 2026-04-25 09:51 | 41.83731 | 16.61563 | 38093 ft | 446 kts | 326° |
| 2026-04-25 09:52 | 41.88726 | 16.56646 | 38097 ft | 446 kts | 326° |
| 2026-04-25 09:52 | 41.93729 | 16.51711 | 38096 ft | 446 kts | 326° |
| 2026-04-25 09:53 | 41.98725 | 16.46774 | 38102 ft | 446 kts | 326° |
| 2026-04-25 09:53 | 42.03714 | 16.41832 | 38099 ft | 446 kts | 326° |
| 2026-04-25 09:54 | 42.08703 | 16.36881 | 38094 ft | 445 kts | 326° |
| 2026-04-25 09:54 | 42.13684 | 16.31928 | 38095 ft | 445 kts | 326° |
| 2026-04-25 09:55 | 42.18671 | 16.26959 | 38102 ft | 446 kts | 326° |
| 2026-04-25 09:55 | 42.23657 | 16.21981 | 38100 ft | 446 kts | 326° |
| 2026-04-25 09:56 | 42.28615 | 16.17022 | 38100 ft | 446 kts | 326° |
| 2026-04-25 09:56 | 42.33588 | 16.12037 | 38096 ft | 444 kts | 326° |
| 2026-04-25 09:57 | 42.38552 | 16.07052 | 38100 ft | 445 kts | 326° |
| 2026-04-25 09:57 | 42.43514 | 16.02060 | 38099 ft | 445 kts | 326° |
| 2026-04-25 09:58 | 42.48478 | 15.97056 | 38094 ft | 445 kts | 325° |
| 2026-04-25 09:58 | 42.53447 | 15.92038 | 38098 ft | 445 kts | 325° |
| 2026-04-25 09:59 | 42.58403 | 15.87023 | 38099 ft | 444 kts | 325° |
| 2026-04-25 09:59 | 42.63357 | 15.82000 | 38096 ft | 444 kts | 325° |
| 2026-04-25 10:00 | 42.68307 | 15.76970 | 38102 ft | 444 kts | 325° |
| 2026-04-25 10:00 | 42.73296 | 15.72025 | 38102 ft | 444 kts | 326° |
| 2026-04-25 10:01 | 42.78302 | 15.67101 | 38097 ft | 443 kts | 326° |
| 2026-04-25 10:01 | 42.83259 | 15.62214 | 38091 ft | 443 kts | 326° |
| 2026-04-25 10:02 | 42.88258 | 15.57276 | 38097 ft | 444 kts | 326° |
| 2026-04-25 10:02 | 42.93260 | 15.52325 | 38094 ft | 443 kts | 326° |
| 2026-04-25 10:03 | 42.98255 | 15.47369 | 38098 ft | 443 kts | 325° |
| 2026-04-25 10:03 | 43.03245 | 15.42410 | 38095 ft | 442 kts | 325° |
| 2026-04-25 10:04 | 43.08216 | 15.37458 | 38097 ft | 442 kts | 325° |
| 2026-04-25 10:04 | 43.13191 | 15.32493 | 38098 ft | 442 kts | 325° |
| 2026-04-25 10:05 | 43.18165 | 15.27518 | 38089 ft | 443 kts | 325° |
| 2026-04-25 10:05 | 43.23132 | 15.22539 | 38098 ft | 442 kts | 324° |
| 2026-04-25 10:06 | 43.28090 | 15.17561 | 38097 ft | 441 kts | 324° |
| 2026-04-25 10:06 | 43.33011 | 15.12608 | 38097 ft | 441 kts | 324° |
| 2026-04-25 10:07 | 43.37963 | 15.07615 | 38093 ft | 442 kts | 324° |
| 2026-04-25 10:07 | 43.42921 | 15.02605 | 38094 ft | 441 kts | 324° |
| 2026-04-25 10:08 | 43.47859 | 14.97604 | 38097 ft | 440 kts | 324° |
| 2026-04-25 10:08 | 43.52783 | 14.92608 | 38097 ft | 440 kts | 324° |
| 2026-04-25 10:09 | 43.57710 | 14.87598 | 38094 ft | 440 kts | 324° |
| 2026-04-25 10:09 | 43.62635 | 14.82580 | 38094 ft | 440 kts | 324° |
| 2026-04-25 10:10 | 43.66724 | 14.78404 | 38100 ft | 440 kts | 323° |
| 2026-04-25 10:10 | 43.71651 | 14.73366 | 38096 ft | 439 kts | 323° |
| 2026-04-25 10:11 | 43.76559 | 14.68334 | 38093 ft | 439 kts | 323° |
| 2026-04-25 10:11 | 43.81471 | 14.63290 | 38095 ft | 439 kts | 323° |
| 2026-04-25 10:12 | 43.86382 | 14.58234 | 38093 ft | 440 kts | 323° |
| 2026-04-25 10:13 | 43.93706 | 14.50676 | 38094 ft | 439 kts | 323° |
| 2026-04-25 10:13 | 43.98608 | 14.45604 | 38091 ft | 439 kts | 323° |
| 2026-04-25 10:14 | 44.03510 | 14.40521 | 38092 ft | 440 kts | 323° |
| 2026-04-25 10:14 | 44.08405 | 14.35435 | 38089 ft | 439 kts | 323° |
| 2026-04-25 10:15 | 44.13300 | 14.30337 | 38085 ft | 438 kts | 323° |
| 2026-04-25 10:15 | 44.18173 | 14.25253 | 38084 ft | 438 kts | 323° |
| 2026-04-25 10:16 | 44.23050 | 14.20153 | 38087 ft | 438 kts | 323° |
| 2026-04-25 10:16 | 44.27931 | 14.15037 | 38087 ft | 439 kts | 323° |
| 2026-04-25 10:17 | 44.32805 | 14.09918 | 38085 ft | 438 kts | 322° |
| 2026-04-25 10:17 | 44.37667 | 14.04802 | 38079 ft | 437 kts | 322° |
| 2026-04-25 10:18 | 44.42522 | 13.99682 | 38078 ft | 437 kts | 322° |
| 2026-04-25 10:18 | 44.47340 | 13.94589 | 38081 ft | 437 kts | 322° |
| 2026-04-25 10:19 | 44.52193 | 13.89449 | 38080 ft | 437 kts | 322° |
| 2026-04-25 10:19 | 44.57046 | 13.84298 | 38081 ft | 436 kts | 322° |
| 2026-04-25 10:20 | 44.61877 | 13.79159 | 38076 ft | 435 kts | 322° |
| 2026-04-25 10:20 | 44.66706 | 13.74014 | 38075 ft | 435 kts | 322° |
| 2026-04-25 10:21 | 44.71538 | 13.68854 | 38075 ft | 436 kts | 321° |
| 2026-04-25 10:21 | 44.76339 | 13.63718 | 38077 ft | 436 kts | 321° |
| 2026-04-25 10:22 | 44.81164 | 13.58544 | 38072 ft | 434 kts | 321° |
| 2026-04-25 10:22 | 44.85801 | 13.53119 | 38080 ft | 432 kts | 314° |
| 2026-04-25 10:23 | 44.90173 | 13.47264 | 38071 ft | 433 kts | 315° |
| 2026-04-25 10:23 | 44.94586 | 13.41466 | 38075 ft | 433 kts | 315° |
| 2026-04-25 10:24 | 44.99001 | 13.35667 | 38089 ft | 433 kts | 315° |
| 2026-04-25 10:24 | 45.03401 | 13.29876 | 38073 ft | 431 kts | 315° |
| 2026-04-25 10:25 | 45.07790 | 13.24087 | 38080 ft | 431 kts | 315° |
| 2026-04-25 10:25 | 45.12173 | 13.18295 | 38080 ft | 431 kts | 315° |
| 2026-04-25 10:26 | 45.16554 | 13.12491 | 38080 ft | 431 kts | 315° |
| 2026-04-25 10:26 | 45.20907 | 13.06712 | 38081 ft | 431 kts | 315° |
| 2026-04-25 10:27 | 45.25277 | 13.00900 | 38078 ft | 430 kts | 315° |
| 2026-04-25 10:27 | 45.30070 | 12.95809 | 38080 ft | 432 kts | 322° |
| 2026-04-25 10:28 | 45.34985 | 12.90895 | 38073 ft | 432 kts | 322° |
| 2026-04-25 10:28 | 45.39903 | 12.85985 | 38071 ft | 432 kts | 322° |
| 2026-04-25 10:29 | 45.44829 | 12.81059 | 38080 ft | 433 kts | 322° |
| 2026-04-25 10:29 | 45.49745 | 12.76133 | 38069 ft | 431 kts | 322° |
| 2026-04-25 10:30 | 45.54651 | 12.71205 | 38071 ft | 431 kts | 322° |
| 2026-04-25 10:30 | 45.59559 | 12.66265 | 38072 ft | 431 kts | 322° |
| 2026-04-25 10:31 | 45.64466 | 12.61315 | 38071 ft | 432 kts | 322° |
| 2026-04-25 10:31 | 45.69374 | 12.56354 | 38076 ft | 433 kts | 321° |
| 2026-04-25 10:32 | 45.74276 | 12.51387 | 38062 ft | 431 kts | 321° |
| 2026-04-25 10:32 | 45.79142 | 12.46446 | 38061 ft | 432 kts | 321° |
| 2026-04-25 10:33 | 45.84039 | 12.41463 | 38065 ft | 432 kts | 321° |
| 2026-04-25 10:33 | 45.88939 | 12.36466 | 38065 ft | 431 kts | 321° |
| 2026-04-25 10:34 | 45.93819 | 12.31477 | 38060 ft | 429 kts | 321° |
| 2026-04-25 10:34 | 45.98684 | 12.26496 | 38065 ft | 429 kts | 321° |
| 2026-04-25 10:35 | 46.03548 | 12.21501 | 38062 ft | 429 kts | 320° |
| 2026-04-25 10:35 | 46.08409 | 12.16499 | 38061 ft | 429 kts | 321° |
| 2026-04-25 10:36 | 46.13270 | 12.11486 | 38064 ft | 430 kts | 320° |
| 2026-04-25 10:36 | 46.18132 | 12.06462 | 38069 ft | 430 kts | 321° |
| 2026-04-25 10:37 | 46.22986 | 12.01433 | 38079 ft | 429 kts | 320° |
| 2026-04-25 10:37 | 46.27831 | 11.96404 | 38064 ft | 429 kts | 320° |
| 2026-04-25 10:38 | 46.32655 | 11.91387 | 38066 ft | 429 kts | 320° |
| 2026-04-25 10:38 | 46.37500 | 11.86336 | 38071 ft | 428 kts | 320° |
| 2026-04-25 10:39 | 46.42314 | 11.81259 | 38063 ft | 427 kts | 317° |
| 2026-04-25 10:39 | 46.46946 | 11.75912 | 38026 ft | 424 kts | 317° |
| 2026-04-25 10:39 | 46.49261 | 11.73261 | 38140 ft | 424 kts | 317° |
| 2026-04-25 10:40 | 46.51586 | 11.70597 | 38102 ft | 427 kts | 318° |
| 2026-04-25 10:40 | 46.56237 | 11.65264 | 38056 ft | 425 kts | 317° |
| 2026-04-25 10:41 | 46.60891 | 11.59916 | 38081 ft | 426 kts | 317° |
| 2026-04-25 10:41 | 46.65527 | 11.54573 | 38029 ft | 425 kts | 317° |